Time;durP1;ratioP1;P1;durP2;ratioP2;P2;SDS_P1;SDS_P2;PMS_P1;PMS_P2;Temp;Humidity;BMP_temperature;BMP_pressure;BME280_temperature;BME280_humidity;BME280_pressure;Samples;Min_cycle;Max_cycle;Signal;HPM_P1;HPM_P2
2022/08/11 00:00:09;;;;;;;14.70;3.43;;;;;;;24.31;77.98;99400.47;4829008;29;20129;-59
2022/08/11 00:02:42;;;;;;;18.67;3.10;;;;;;;24.76;76.36;99415.25;4829145;29;20114;-58
2022/08/11 00:05:17;;;;;;;83.20;6.23;;;;;;;25.12;75.23;99420.97;4828903;29;20117;-59
2022/08/11 00:07:50;;;;;;;13.03;3.00;;;;;;;25.55;72.82;99407.19;4828951;29;20050;-60
2022/08/11 00:10:25;;;;;;;12.70;2.77;;;;;;;25.66;72.28;99422.28;4828818;29;20065;-59
2022/08/11 00:12:58;;;;;;;8.13;2.27;;;;;;;25.71;72.07;99417.34;4828240;29;20281;-59
2022/08/11 00:15:40;;;;;;;9.87;2.97;;;;;;;25.94;70.87;99423.25;4828096;29;20062;-59
2022/08/11 00:18:12;;;;;;;84.20;6.10;;;;;;;25.77;70.12;99410.56;4829015;29;20051;-58
2022/08/11 00:20:46;;;;;;;41.23;5.07;;;;;;;25.91;71.18;99414.63;4828750;29;20123;-59
2022/08/11 00:23:20;;;;;;;17.37;3.20;;;;;;;25.92;69.77;99413.66;4828853;29;20092;-59
2022/08/11 00:25:53;;;;;;;22.00;3.77;;;;;;;25.75;70.28;99402.66;4828782;29;20090;-60
2022/08/11 00:28:28;;;;;;;11.50;2.80;;;;;;;25.64;70.38;99405.50;4828687;29;20168;-58
2022/08/11 00:31:03;;;;;;;7.57;2.90;;;;;;;25.62;70.74;99418.19;4828733;29;20243;-59
2022/08/11 00:33:38;;;;;;;11.73;2.63;;;;;;;25.61;71.33;99411.16;4828538;29;20406;-58
2022/08/11 00:36:18;;;;;;;14.47;2.67;;;;;;;25.66;70.61;99403.56;4828479;29;20066;-58
2022/08/11 00:38:56;;;;;;;12.60;3.03;;;;;;;25.63;70.84;99403.81;4828578;29;20054;-58
2022/08/11 00:41:35;;;;;;;15.97;2.57;;;;;;;25.68;70.55;99412.25;4828213;29;20073;-58
2022/08/11 00:44:29;;;;;;;14.77;2.75;;;;;;;25.73;70.48;99427.88;4828430;29;20089;-58
2022/08/11 00:47:15;;;;;;;20.90;2.63;;;;;;;25.68;69.96;99417.59;4828231;29;20077;-59
2022/08/11 00:50:02;;;;;;;37.60;4.30;;;;;;;25.79;71.01;99414.78;4828205;29;20113;-59
2022/08/11 00:52:57;;;;;;;15.83;3.13;;;;;;;25.75;70.23;99407.19;4828056;29;20082;-58
2022/08/11 00:56:09;;;;;;;30.87;3.30;;;;;;;25.80;70.99;99395.06;4828062;29;20104;-58
2022/08/11 00:59:11;;;;;;;22.10;3.50;;;;;;;25.85;70.10;99396.47;4828439;29;20096;-58
2022/08/11 01:02:15;;;;;;;13.80;2.90;;;;;;;25.90;70.27;99391.56;4828120;29;20455;-58
2022/08/11 01:05:22;;;;;;;62.93;5.50;;;;;;;25.96;69.88;99390.97;4827976;29;20066;-58
2022/08/11 01:08:24;;;;;;;48.97;4.90;;;;;;;26.06;71.02;99385.59;4826728;29;20276;-58
2022/08/11 01:11:26;;;;;;;14.67;3.13;;;;;;;26.28;70.19;99376.34;4827949;29;20216;-58
2022/08/11 01:14:35;;;;;;;30.37;4.07;;;;;;;26.46;69.79;99374.59;4827795;29;20078;-58
2022/08/11 01:17:41;;;;;;;38.50;4.53;;;;;;;26.48;69.20;99372.59;4810577;29;20058;-58
2022/08/11 01:21:10;;;;;;;31.73;3.30;;;;;;;26.38;69.44;99382.50;4813948;29;20232;-59
2022/08/11 01:24:25;;;;;;;18.00;3.43;;;;;;;26.31;69.64;99368.88;4808999;29;20050;-57
2022/08/11 01:27:34;;;;;;;11.97;2.87;;;;;;;26.37;69.90;99391.53;4827727;29;20086;-59
2022/08/11 01:30:35;;;;;;;12.70;2.97;;;;;;;26.30;69.18;99390.44;4812170;29;20096;-58
2022/08/11 01:33:39;;;;;;;17.50;3.53;;;;;;;26.36;69.45;99379.13;4827619;29;20092;-58
2022/08/11 01:36:48;;;;;;;16.83;2.93;;;;;;;26.54;68.58;99382.75;4826096;29;20058;-58
2022/08/11 01:40:12;;;;;;;84.93;7.70;;;;;;;26.75;67.79;99384.31;4826305;29;20057;-58
2022/08/11 01:46:08;;;;;;;14.87;3.27;;;;;;;26.65;67.43;99379.84;4826714;29;20140;-58
2022/08/11 01:48:45;;;;;;;208.13;13.23;;;;;;;26.76;68.25;99380.63;4827679;29;20070;-60
2022/08/11 01:51:25;;;;;;;17.00;3.63;;;;;;;26.84;67.69;99372.72;4827066;29;20096;-59
2022/08/11 01:54:05;;;;;;;28.07;3.90;;;;;;;26.70;67.43;99375.91;4825974;29;20089;-60
2022/08/11 01:56:48;;;;;;;38.83;4.23;;;;;;;26.56;67.30;99372.75;4809075;29;20369;-62
2022/08/11 01:59:21;;;;;;;14.10;2.50;;;;;;;26.61;67.30;99378.47;4808818;29;20073;-61
2022/08/11 02:02:44;;;;;;;19.17;3.10;;;;;;;26.62;67.42;99373.97;4808917;29;20213;-61
2022/08/11 02:05:34;;;;;;;15.73;2.97;;;;;;;26.82;68.58;99369.31;4808961;29;20122;-60
2022/08/11 02:08:18;;;;;;;28.07;3.73;;;;;;;26.87;67.17;99361.69;4809018;29;20134;-60
2022/08/11 02:11:32;;;;;;;24.70;3.63;;;;;;;26.87;67.51;99361.69;4808857;29;20066;-61
2022/08/11 02:14:24;;;;;;;11.23;2.80;;;;;;;26.97;67.84;99365.13;4808958;29;20046;-64
2022/08/11 02:17:08;;;;;;;15.50;3.67;;;;;;;27.01;65.95;99362.97;4808645;29;20093;-63
2022/08/11 02:26:09;;;;;;;17.40;3.13;;;;;;;26.97;66.55;99357.09;4808623;29;20078;-60
2022/08/11 02:29:04;;;;;;;18.23;3.42;;;;;;;27.07;66.02;99363.22;4808788;29;20086;-61
2022/08/11 02:35:05;;;;;;;20.30;3.43;;;;;;;27.36;65.58;99362.19;4800459;29;20078;-59
2022/08/11 02:37:47;;;;;;;42.90;4.43;;;;;;;27.60;63.45;99360.69;4808316;29;20053;-60
2022/08/11 02:40:25;;;;;;;20.70;3.13;;;;;;;27.68;62.43;99356.22;4808298;29;20066;-59
2022/08/11 02:43:11;;;;;;;14.05;2.78;;;;;;;27.88;62.29;99356.03;4807623;29;20055;-58
2022/08/11 02:46:01;;;;;;;17.70;3.10;;;;;;;27.85;61.65;99351.81;4808680;29;20059;-58
2022/08/11 02:51:52;;;;;;;9.87;3.10;;;;;;;27.78;61.19;99350.72;4807253;29;20086;-58
2022/08/11 02:54:28;;;;;;;25.40;3.60;;;;;;;27.61;62.37;99351.59;4811385;29;20347;-58
2022/08/11 02:57:04;;;;;;;13.60;3.23;;;;;;;27.47;62.17;99351.19;4826464;29;20365;-58
2022/08/11 02:59:53;;;;;;;11.60;2.60;;;;;;;27.18;63.01;99353.25;4826583;29;20069;-58
2022/08/11 03:02:41;;;;;;;9.83;3.13;;;;;;;27.15;64.36;99353.56;4826384;29;20125;-58
2022/08/11 03:05:24;;;;;;;18.30;3.50;;;;;;;26.73;64.74;99300.56;4825768;29;20082;-59
2022/08/11 03:08:12;;;;;;;10.90;3.40;;;;;;;27.15;64.25;99358.94;4824839;29;20078;-58
2022/08/11 03:16:47;;;;;;;19.13;3.70;;;;;;;27.29;62.82;99348.53;4825654;29;20168;-57
2022/08/11 03:19:27;;;;;;;17.77;3.73;;;;;;;27.30;61.89;99349.38;4826113;29;20054;-57
2022/08/11 03:22:08;;;;;;;19.23;3.83;;;;;;;27.10;61.99;99348.66;4825760;29;20064;-57
2022/08/11 03:24:59;;;;;;;19.80;3.50;;;;;;;27.10;62.35;99356.69;4826413;29;20125;-57
2022/08/11 03:27:45;;;;;;;19.57;3.20;;;;;;;27.04;63.85;99355.47;4826413;29;20125;-57
2022/08/11 03:30:18;;;;;;;13.70;2.83;;;;;;;26.88;63.73;99350.81;4826231;29;20089;-57
2022/08/11 03:36:27;;;;;;;11.13;2.45;;;;;;;27.10;59.85;99348.66;4825919;29;20122;-57
2022/08/11 03:39:12;;;;;;;9.37;2.40;;;;;;;27.07;58.10;99325.69;4825408;29;20103;-57
2022/08/11 03:41:51;;;;;;;7.73;1.90;;;;;;;27.02;56.61;99338.69;4826078;29;20085;-57
2022/08/11 03:44:51;;;;;;;45.83;4.13;;;;;;;26.82;56.76;99342.53;4825921;29;20139;-57
2022/08/11 03:47:35;;;;;;;11.02;2.75;;;;;;;26.73;57.21;99344.25;4826160;29;20088;-58
2022/08/11 03:50:23;;;;;;;13.47;3.10;;;;;;;26.84;60.35;99343.22;4826122;29;20062;-58
2022/08/11 03:53:07;;;;;;;;;;;;;;;26.92;61.58;99343.28;4826568;29;20054;-57
2022/08/11 03:56:04;;;;;;;13.93;3.03;;;;;;;27.26;62.62;99339.97;4826021;29;19924;-58
2022/08/11 03:58:57;;;;;;;12.97;3.17;;;;;;;27.50;63.01;99342.81;4812359;29;20054;-60
2022/08/11 04:01:56;;;;;;;28.47;3.73;;;;;;;27.68;59.73;99333.88;4824855;29;20375;-58
2022/08/11 04:05:10;;;;;;;10.57;2.43;;;;;;;27.71;56.64;99338.97;4825178;29;20065;-58
2022/08/11 04:08:28;;;;;;;48.97;4.43;;;;;;;27.64;55.78;99332.53;4825396;29;20053;-56
2022/08/11 04:11:35;;;;;;;30.43;3.73;;;;;;;27.54;55.83;99341.53;4825542;29;20643;-57
2022/08/11 04:18:03;;;;;;;10.57;2.60;;;;;;;27.90;55.24;99349.50;4826642;29;20050;-58
2022/08/11 04:20:52;;;;;;;11.93;3.10;;;;;;;27.85;55.23;99343.75;4828863;29;20358;-57
2022/08/11 04:23:53;;;;;;;15.23;3.30;;;;;;;27.72;55.51;99340.63;4827940;29;20093;-59
2022/08/11 04:27:31;;;;;;;18.43;2.97;;;;;;;27.57;54.58;99332.31;4807262;29;20064;-57
2022/08/11 04:30:13;;;;;;;15.80;2.87;;;;;;;27.28;55.64;99332.59;4814804;29;20342;-59
2022/08/11 04:33:12;;;;;;;9.73;2.50;;;;;;;27.37;55.67;99320.09;4828741;29;20292;-59
2022/08/11 04:35:53;;;;;;;13.20;3.37;;;;;;;27.52;56.36;99324.72;4828660;29;20054;-59
2022/08/11 04:38:57;;;;;;;15.53;3.07;;;;;;;27.60;56.27;99320.41;4828711;29;20089;-59
2022/08/11 04:45:23;;;;;;;19.83;2.97;;;;;;;27.02;56.71;99327.97;4828407;29;20125;-59
2022/08/11 05:05:29;;;;;;;12.55;2.50;;;;;;;27.18;56.27;99321.06;4827902;29;20133;-59
2022/08/11 05:07:42;;;;;;;13.27;2.63;;;;;;;27.17;56.70;99325.59;4802622;29;20058;-59
2022/08/11 05:10:24;;;;;;;35.97;4.07;;;;;;;26.82;56.63;99262.13;4766171;29;20129;-59
2022/08/11 05:27:09;;;;;;;17.03;3.33;;;;;;;27.14;56.37;99319.72;4827445;29;20046;-59
2022/08/11 05:36:17;;;;;;;11.93;2.47;;;;;;;26.47;57.33;99322.69;4789814;30;20120;-60
2022/08/11 05:56:19;;;;;;;23.83;3.80;;;;;;;26.29;59.19;99324.50;4827324;29;20092;-60
2022/08/11 05:58:52;;;;;;;13.53;3.00;;;;;;;26.22;59.04;99319.72;4827343;29;20410;-58
2022/08/11 06:01:26;;;;;;;14.97;3.60;;;;;;;26.20;59.38;99337.75;4826231;29;20097;-58
2022/08/11 06:04:15;;;;;;;12.90;4.03;;;;;;;26.18;60.88;99329.03;4826491;29;20082;-61
2022/08/11 06:06:52;;;;;;;20.98;3.78;;;;;;;26.13;61.53;99331.31;4826455;29;20077;-60
2022/08/11 06:09:26;;;;;;;13.57;3.20;;;;;;;26.08;63.19;99333.59;4826549;29;20086;-60
2022/08/11 06:12:00;;;;;;;9.13;2.67;;;;;;;25.99;62.83;99334.47;4825031;29;20227;-61
2022/08/11 06:14:31;;;;;;;27.33;4.00;;;;;;;25.92;62.80;99344.09;4825448;29;20130;-60
2022/08/11 06:17:06;;;;;;;16.33;3.53;;;;;;;25.83;63.16;99341.28;4826270;29;20069;-59
2022/08/11 06:19:40;;;;;;;45.87;5.07;;;;;;;25.73;63.06;99351.13;4825796;29;20126;-61
2022/08/11 06:22:12;;;;;;;31.37;4.07;;;;;;;25.60;63.37;99351.44;4826028;29;20050;-58
2022/08/11 06:24:51;;;;;;;49.70;5.43;;;;;;;25.52;63.47;99353.16;4826091;29;20096;-59
2022/08/11 06:27:25;;;;;;;19.57;3.63;;;;;;;25.38;64.23;99341.06;4825847;29;20963;-59
2022/08/11 06:29:56;;;;;;;18.80;3.50;;;;;;;25.35;64.17;99347.53;4825703;29;20066;-59
2022/08/11 06:32:34;;;;;;;124.90;11.03;;;;;;;25.21;64.53;99356.00;4823974;29;20317;-60
2022/08/11 06:35:18;;;;;;;13.30;3.40;;;;;;;25.09;65.01;99346.41;4826761;29;20129;-61
2022/08/11 06:38:05;;;;;;;15.50;3.50;;;;;;;25.02;65.33;99351.44;4827041;29;20054;-59
2022/08/11 06:41:29;;;;;;;12.80;2.90;;;;;;;25.07;65.58;99353.72;4826346;29;20489;-61
2022/08/11 06:43:50;;;;;;;9.90;3.10;;;;;;;25.05;65.73;99355.69;4826636;29;20062;-60
2022/08/11 06:46:30;;;;;;;16.57;3.23;;;;;;;24.98;65.76;99350.88;4826634;29;20119;-60
2022/08/11 06:49:04;;;;;;;29.43;4.00;;;;;;;24.96;65.77;99347.53;4826348;29;20267;-59
2022/08/11 06:51:37;;;;;;;59.17;6.20;;;;;;;25.13;65.73;99369.16;4826619;29;20184;-60
2022/08/11 06:54:15;;;;;;;33.37;4.33;;;;;;;25.24;65.15;99361.06;4826922;29;20062;-62
2022/08/11 07:02:50;;;;;;;10.30;3.10;;;;;;;25.36;64.70;99370.63;4826489;29;20121;-60
2022/08/11 07:05:26;;;;;;;14.73;3.80;;;;;;;24.94;64.85;99306.72;4826637;29;20073;-59
2022/08/11 07:17:32;;;;;;;11.93;2.80;;;;;;;24.97;66.11;99370.56;4826484;29;20092;-60
2022/08/11 07:28:57;;;;;;;19.87;3.63;;;;;;;25.19;64.56;99374.00;4826003;29;20054;-60
2022/08/11 07:31:35;;;;;;;15.73;2.97;;;;;;;25.47;64.83;99376.81;4825989;29;20370;-59
2022/08/11 07:34:17;;;;;;;24.83;3.83;;;;;;;25.60;63.91;99377.34;4826268;29;20066;-60
2022/08/11 07:36:52;;;;;;;29.63;4.43;;;;;;;25.64;63.51;99377.94;4825759;29;20089;-63
2022/08/11 07:39:28;;;;;;;27.10;4.53;;;;;;;25.73;63.40;99383.22;4825976;29;20118;-61
2022/08/11 07:42:00;;;;;;;21.90;3.77;;;;;;;25.80;63.57;99379.00;4825740;29;20121;-61
2022/08/11 07:48:10;;;;;;;23.73;4.97;;;;;;;25.99;63.02;99394.22;4825925;29;20077;-60
2022/08/11 07:53:02;;;;;;;12.67;3.60;;;;;;;25.89;61.89;99395.22;4827650;29;20054;-60
2022/08/11 07:55:34;;;;;;;25.13;3.67;;;;;;;25.43;62.34;99327.25;4829053;29;20157;-61
2022/08/11 08:18:23;;;;;;;102.93;8.50;;;;;;;25.29;62.98;99388.22;4828402;29;20054;-60
2022/08/11 08:21:10;;;;;;;33.70;4.53;;;;;;;25.18;63.44;99383.00;4828614;29;20126;-60
2022/08/11 08:23:43;;;;;;;15.63;3.30;;;;;;;25.16;63.70;99395.63;4828864;29;20052;-61
2022/08/11 08:31:57;;;;;;;67.57;6.87;;;;;;;24.88;63.88;99395.44;4800644;29;20326;-60
2022/08/11 08:34:29;;;;;;;23.83;4.10;;;;;;;24.90;63.65;99377.44;4828113;29;20113;-61
2022/08/11 08:37:02;;;;;;;30.83;4.40;;;;;;;24.87;63.84;99387.59;4827438;29;20105;-59
2022/08/11 08:39:53;;;;;;;24.03;3.83;;;;;;;24.82;63.70;99388.00;4827042;29;20337;-60
2022/08/11 08:42:28;;;;;;;52.37;5.10;;;;;;;24.74;63.89;99386.00;4828173;29;20081;-59
2022/08/11 08:45:06;;;;;;;15.00;2.97;;;;;;;24.75;64.31;99392.19;4828768;29;20122;-60
2022/08/11 08:47:39;;;;;;;34.87;5.00;;;;;;;24.58;64.52;99379.50;4828438;29;20066;-62
2022/08/11 08:50:13;;;;;;;40.37;4.93;;;;;;;24.72;64.49;99403.16;4828673;29;20126;-61
2022/08/11 08:52:53;;;;;;;56.53;6.40;;;;;;;24.70;64.94;99405.94;4828382;29;20095;-60
2022/08/11 08:55:24;;;;;;;40.53;5.07;;;;;;;24.70;65.27;99405.94;4828467;29;20062;-60
2022/08/11 08:57:59;;;;;;;18.10;4.10;;;;;;;24.62;65.48;99403.13;4828496;29;20129;-60
2022/08/11 09:00:41;;;;;;;18.40;3.77;;;;;;;24.60;65.71;99414.94;4828343;29;20304;-60
2022/08/11 09:03:13;;;;;;;45.97;6.87;;;;;;;24.52;65.63;99408.44;4828014;29;20062;-59
2022/08/11 09:06:04;;;;;;;31.83;4.20;;;;;;;24.39;65.43;99412.28;4828194;29;20753;-61
2022/08/11 09:08:36;;;;;;;14.90;3.20;;;;;;;24.27;65.79;99411.53;4828220;29;20062;-59
2022/08/11 09:13:55;;;;;;;44.67;4.80;;;;;;;24.10;66.58;99413.84;4827957;29;20239;-59
2022/08/11 09:16:38;;;;;;;111.53;9.07;;;;;;;23.93;66.50;99406.44;4827799;29;20110;-59
2022/08/11 09:19:09;;;;;;;37.83;4.00;;;;;;;24.02;66.26;99416.31;4827700;29;20055;-61
2022/08/11 09:21:42;;;;;;;15.73;3.67;;;;;;;23.56;66.34;99366.84;4828054;29;20058;-60
2022/08/11 09:27:08;;;;;;;15.23;3.58;;;;;;;23.63;66.76;99421.34;4827749;29;20058;-60
2022/08/11 09:29:39;;;;;;;11.80;3.80;;;;;;;23.43;67.57;99419.53;4826480;29;20154;-59
2022/08/11 09:32:13;;;;;;;17.50;3.73;;;;;;;23.30;67.69;99421.53;4828045;29;20117;-60
2022/08/11 09:49:35;;;;;;;12.83;3.60;;;;;;;22.33;71.17;99419.47;4821357;29;20131;-59
2022/08/11 09:52:08;;;;;;;10.43;3.57;;;;;;;22.31;71.73;99441.84;4827684;29;20236;-59
2022/08/11 09:54:43;;;;;;;22.20;4.13;;;;;;;22.01;72.52;99413.13;4827480;29;20050;-59
2022/08/11 10:00:11;;;;;;;14.57;3.63;;;;;;;21.96;73.68;99459.53;4827237;29;20058;-58
2022/08/11 10:02:45;;;;;;;11.33;3.43;;;;;;;21.85;74.63;99454.19;4827487;29;20342;-59
2022/08/11 10:08:14;;;;;;;19.70;4.53;;;;;;;21.72;75.31;99464.06;4827266;29;20516;-59
2022/08/11 10:10:47;;;;;;;27.53;4.30;;;;;;;21.63;75.77;99467.41;4827388;29;20335;-59
2022/08/11 10:13:26;;;;;;;17.30;4.10;;;;;;;21.59;76.19;99471.25;4827272;29;20307;-61
2022/08/11 10:16:17;;;;;;;12.10;3.83;;;;;;;21.56;76.25;99471.50;4826418;29;20295;-59
2022/08/11 10:18:52;;;;;;;16.17;3.80;;;;;;;21.45;76.30;99459.84;4827206;29;20909;-61
2022/08/11 10:21:34;;;;;;;16.27;3.73;;;;;;;21.40;76.65;99467.31;4826927;29;20295;-59
2022/08/11 10:26:59;;;;;;;14.20;4.30;;;;;;;21.01;77.20;99416.09;4827169;29;20299;-59
2022/08/11 10:35:31;;;;;;;17.70;4.17;;;;;;;21.22;78.18;99487.25;4827029;29;20302;-61
2022/08/11 10:38:05;;;;;;;12.10;3.83;;;;;;;21.18;78.28;99485.75;4826752;29;20351;-60
2022/08/11 10:40:41;;;;;;;15.63;4.17;;;;;;;21.11;78.27;99486.19;4827195;29;20353;-59
2022/08/11 10:43:13;;;;;;;13.50;4.07;;;;;;;21.09;78.56;99496.09;4826723;29;20330;-59
2022/08/11 10:49:01;;;;;;;17.33;3.83;;;;;;;20.97;78.80;99486.38;4808381;29;20296;-61
2022/08/11 11:00:05;;;;;;;17.40;4.53;;;;;;;20.81;79.38;99483.09;4826529;29;20310;-59
2022/08/11 11:02:38;;;;;;;46.50;5.50;;;;;;;20.80;79.22;99473.44;4826639;29;20323;-59
2022/08/11 11:05:15;;;;;;;41.43;4.93;;;;;;;20.76;79.23;99474.59;4826932;29;20315;-59
2022/08/11 11:07:55;;;;;;;121.00;9.87;;;;;;;20.73;78.95;99472.19;4825639;29;20308;-59
2022/08/11 11:10:29;;;;;;;14.07;3.60;;;;;;;20.81;79.20;99488.41;4821236;29;20294;-59
2022/08/11 11:22:39;;;;;;;17.90;4.07;;;;;;;20.55;80.50;99476.97;4752407;30;20306;-60
2022/08/11 11:44:27;;;;;;;13.57;4.83;;;;;;;20.33;81.54;99453.72;4829869;29;20305;-61
2022/08/11 11:47:57;;;;;;;19.90;4.53;;;;;;;20.44;81.23;99467.06;4803447;29;20620;-61
2022/08/11 11:50:35;;;;;;;49.90;6.10;;;;;;;20.39;81.35;99470.06;4829220;29;20908;-61
2022/08/11 11:53:08;;;;;;;28.50;5.27;;;;;;;20.40;81.42;99476.22;4829594;29;20357;-59
2022/08/11 11:55:43;;;;;;;17.80;6.80;;;;;;;20.32;81.67;99483.84;4828283;29;20303;-61
2022/08/11 12:01:24;;;;;;;28.53;10.93;;;;;;;20.04;82.60;99469.81;4829355;29;20376;-61
2022/08/11 12:04:23;;;;;;;20.67;7.97;;;;;;;19.96;82.92;99474.81;4828309;29;20312;-62
2022/08/11 12:13:54;;;;;;;21.73;9.40;;;;;;;19.71;83.70;99489.69;4828324;29;20514;-61
2022/08/11 12:16:31;;;;;;;19.80;6.93;;;;;;;19.58;84.12;99499.38;4830970;29;20311;-61
2022/08/11 12:19:12;;;;;;;19.07;5.57;;;;;;;19.47;84.69;99496.59;4832202;29;20119;-61
2022/08/11 12:27:31;;;;;;;21.25;6.40;;;;;;;19.15;86.90;99513.63;4832230;29;20875;-61
2022/08/11 12:30:14;;;;;;;18.90;5.57;;;;;;;19.06;87.83;99510.72;4832027;29;20069;-60
2022/08/11 12:32:52;;;;;;;22.20;6.00;;;;;;;19.04;88.17;99507.28;4832187;29;20315;-62
2022/08/11 12:35:23;;;;;;;18.23;6.00;;;;;;;18.94;88.28;99505.22;4831972;29;20073;-61
2022/08/11 12:37:58;;;;;;;15.77;5.30;;;;;;;18.85;88.76;99499.69;4831290;29;20296;-61
2022/08/11 12:46:42;;;;;;;23.87;6.50;;;;;;;18.37;89.24;99462.91;4832102;29;20090;-62
2022/08/11 12:52:22;;;;;;;18.07;6.47;;;;;;;18.40;90.66;99489.16;4804036;29;20350;-61
2022/08/11 12:55:03;;;;;;;18.50;6.35;;;;;;;18.26;90.90;99470.63;4831604;29;20311;-62
2022/08/11 13:06:34;;;;;;;20.73;6.63;;;;;;;18.40;91.17;99488.31;4757910;30;20282;-62
2022/08/11 13:09:06;;;;;;;18.57;6.83;;;;;;;18.38;91.22;99485.75;4758254;30;20317;-62
2022/08/11 13:14:31;;;;;;;17.92;7.00;;;;;;;18.29;91.55;99475.72;4757955;30;20353;-62
2022/08/11 13:17:25;;;;;;;20.53;7.67;;;;;;;18.23;91.64;99486.69;4757849;30;20063;-61
2022/08/11 13:20:15;;;;;;;21.20;7.30;;;;;;;18.09;92.02;99483.06;4757977;30;20375;-61
2022/08/11 13:22:52;;;;;;;25.27;7.60;;;;;;;18.10;92.14;99490.06;4757930;30;20325;-63
2022/08/11 13:25:28;;;;;;;18.97;6.57;;;;;;;18.00;92.38;99475.72;4757748;30;20317;-62
2022/08/11 13:28:04;;;;;;;21.93;7.23;;;;;;;18.05;92.36;99486.84;4757805;30;20298;-62
2022/08/11 13:33:24;;;;;;;17.83;6.57;;;;;;;18.02;92.61;99479.13;4831147;29;20663;-62
2022/08/11 13:36:04;;;;;;;17.83;6.47;;;;;;;18.00;92.54;99475.72;4831083;29;20298;-61
2022/08/11 13:38:39;;;;;;;18.27;7.00;;;;;;;18.03;92.38;99480.81;4831206;29;20295;-62
2022/08/11 13:44:05;;;;;;;18.90;7.77;;;;;;;18.03;92.71;99474.69;4830836;29;20635;-63
2022/08/11 13:46:37;;;;;;;20.30;7.97;;;;;;;17.96;92.98;99487.41;4831170;29;20315;-62
2022/08/11 13:49:18;;;;;;;17.23;7.33;;;;;;;17.95;93.25;99477.78;4830949;29;20330;-61
2022/08/11 13:51:50;;;;;;;20.37;8.23;;;;;;;17.91;93.36;99468.31;4831053;29;20311;-62
2022/08/11 13:54:27;;;;;;;21.33;8.10;;;;;;;17.85;93.87;99466.06;4830523;29;20299;-61
2022/08/11 13:57:02;;;;;;;21.73;7.47;;;;;;;17.87;94.04;99464.16;4830781;29;20327;-63
2022/08/11 13:59:47;;;;;;;21.40;7.27;;;;;;;17.84;94.04;99469.63;4830803;29;20299;-61
2022/08/11 14:02:24;;;;;;;;;;;;;;;17.85;94.26;99466.06;4831259;29;20306;-61
2022/08/11 14:05:03;;;;;;;23.27;7.93;;;;;;;17.88;94.26;99465.88;4830562;29;19936;-62
2022/08/11 14:07:38;;;;;;;19.73;7.57;;;;;;;17.92;94.40;99467.38;4827027;29;20712;-62
2022/08/11 14:10:17;;;;;;;17.67;7.43;;;;;;;18.01;94.04;99472.09;4820432;29;20304;-61
2022/08/11 14:15:46;;;;;;;21.73;8.63;;;;;;;17.97;94.06;99464.44;4820068;29;20312;-61
2022/08/11 14:18:23;;;;;;;19.60;8.10;;;;;;;17.92;94.29;99454.16;4824340;29;20375;-61
2022/08/11 14:23:49;;;;;;;19.30;7.50;;;;;;;17.91;94.10;99452.47;4827403;29;20345;-60
2022/08/11 14:26:25;;;;;;;18.20;8.40;;;;;;;17.93;94.22;99458.50;4827206;29;20576;-62
2022/08/11 14:29:01;;;;;;;22.40;8.43;;;;;;;17.90;94.58;99461.34;4826893;29;20371;-62
2022/08/11 14:31:34;;;;;;;23.63;7.83;;;;;;;17.91;94.95;99457.75;4830102;29;20363;-64
2022/08/11 14:34:11;;;;;;;24.20;9.57;;;;;;;17.90;95.48;99442.84;4830371;29;20307;-62
2022/08/11 14:36:47;;;;;;;21.03;8.17;;;;;;;17.96;95.64;99442.47;4830502;29;20292;-63
2022/08/11 14:39:57;;;;;;;22.37;8.53;;;;;;;17.87;95.54;99437.72;4830247;29;20477;-62
2022/08/11 14:48:28;;;;;;;17.33;8.23;;;;;;;18.04;96.39;99439.34;4830202;29;20308;-63
2022/08/11 14:51:02;;;;;;;26.33;9.00;;;;;;;18.07;96.41;99450.63;4830150;29;20584;-63
2022/08/11 14:53:39;;;;;;;19.90;8.70;;;;;;;18.08;96.59;99441.72;4830001;29;20314;-63
2022/08/11 14:59:26;;;;;;;17.70;7.57;;;;;;;18.17;96.68;99442.09;4803442;29;20399;-64
2022/08/11 15:04:46;;;;;;;26.03;9.63;;;;;;;18.21;96.60;99435.69;4811559;29;20398;-62
2022/08/11 15:07:24;;;;;;;23.63;9.57;;;;;;;18.16;96.45;99440.41;4811471;29;20288;-62
2022/08/11 15:09:55;;;;;;;24.13;9.70;;;;;;;18.16;96.68;99449.19;4811574;29;20292;-63
2022/08/11 15:12:43;;;;;;;24.43;8.33;;;;;;;18.19;97.20;99448.16;4811896;29;20353;-62
2022/08/11 15:18:07;;;;;;;20.27;8.77;;;;;;;18.23;97.51;99444.38;4811560;29;20637;-63
2022/08/11 15:26:19;;;;;;;18.13;8.93;;;;;;;18.34;97.52;99439.28;4811589;29;20351;-64
2022/08/11 15:37:51;;;;;;;19.17;9.40;;;;;;;18.28;98.64;99400.00;4811386;29;20603;-63
2022/08/11 15:46:21;;;;;;;28.27;10.53;;;;;;;18.46;99.36;99406.78;4811110;29;20531;-63
2022/08/11 15:49:00;;;;;;;20.73;9.17;;;;;;;18.51;99.58;99402.06;4811051;29;20297;-63
2022/08/11 15:51:36;;;;;;;23.58;9.13;;;;;;;18.56;99.76;99404.41;4811324;29;20296;-63
2022/08/11 15:54:17;;;;;;;26.43;10.17;;;;;;;18.51;99.58;99402.06;4810973;29;20067;-62
2022/08/11 15:56:53;;;;;;;23.53;9.47;;;;;;;18.61;99.74;99401.47;4811109;29;20304;-62
2022/08/11 16:05:16;;;;;;;20.20;8.53;;;;;;;18.79;100.00;99410.91;4829103;29;20560;-64
2022/08/11 16:08:09;;;;;;;32.00;9.98;;;;;;;18.82;100.00;99410.75;4829136;29;20295;-64
2022/08/11 16:10:45;;;;;;;38.53;10.87;;;;;;;18.84;100.00;99407.97;4829120;29;20119;-64
2022/08/11 16:16:15;;;;;;;32.23;11.13;;;;;;;18.91;100.00;99399.53;4832611;29;20315;-62
2022/08/11 16:18:55;;;;;;;37.37;11.50;;;;;;;18.92;100.00;99401.25;4832628;29;20291;-62
2022/08/11 16:21:31;;;;;;;29.50;10.10;;;;;;;18.94;100.00;99394.03;4832334;29;20356;-63
2022/08/11 16:24:07;;;;;;;31.95;11.25;;;;;;;18.99;100.00;99379.66;4832195;29;20327;-63
2022/08/11 16:27:02;;;;;;;26.83;8.83;;;;;;;19.00;100.00;99360.22;4831858;29;20058;-63
2022/08/11 16:29:49;;;;;;;32.80;9.33;;;;;;;19.08;100.00;99357.91;4832175;29;20577;-64
2022/08/11 16:32:22;;;;;;;31.73;9.77;;;;;;;19.16;100.00;99366.16;4832183;29;20310;-63
2022/08/11 16:40:36;;;;;;;24.97;8.67;;;;;;;19.26;100.00;99366.41;4832291;29;20331;-62
2022/08/11 16:49:05;;;;;;;26.77;8.97;;;;;;;19.35;100.00;99356.06;4831055;29;20295;-63
2022/08/11 16:51:43;;;;;;;25.03;8.17;;;;;;;19.35;100.00;99358.69;4831845;29;20291;-62
2022/08/11 16:54:17;;;;;;;23.93;8.43;;;;;;;19.37;100.00;99362.09;4831803;29;20671;-62
2022/08/11 16:56:52;;;;;;;30.23;8.57;;;;;;;19.36;100.00;99352.44;4832012;29;20367;-63
2022/08/11 16:59:29;;;;;;;27.80;9.00;;;;;;;19.41;100.00;99352.13;4830957;29;20283;-62
2022/08/11 17:02:07;;;;;;;28.55;9.02;;;;;;;19.42;100.00;99355.63;4831946;29;20438;-63
2022/08/11 17:13:41;;;;;;;36.77;9.70;;;;;;;19.43;100.00;99346.75;4793715;30;20043;-62
2022/08/11 17:16:17;;;;;;;25.52;9.55;;;;;;;19.46;100.00;99341.22;4793565;30;20345;-63
2022/08/11 17:18:52;;;;;;;21.07;8.90;;;;;;;19.34;100.00;99317.25;4793784;30;20074;-62
2022/08/11 17:21:28;;;;;;;34.17;8.97;;;;;;;19.49;100.00;99339.22;4793541;30;20316;-62
2022/08/11 17:24:02;;;;;;;26.83;9.13;;;;;;;19.46;100.00;99342.06;4793159;29;20297;-62
2022/08/11 17:26:56;;;;;;;30.25;9.20;;;;;;;19.48;100.00;99349.94;4793396;30;20534;-63
2022/08/11 17:29:31;;;;;;;26.33;8.83;;;;;;;19.48;100.00;99356.06;4793307;30;20061;-62
2022/08/11 17:35:33;;;;;;;31.97;8.50;;;;;;;19.40;100.00;99353.94;4793216;30;20316;-63
2022/08/11 17:38:07;;;;;;;36.43;8.67;;;;;;;19.36;100.00;99360.38;4793145;30;20297;-63
2022/08/11 17:48:24;;;;;;;28.40;8.97;;;;;;;19.35;100.00;99361.34;4793363;30;20297;-62
2022/08/11 17:49:12;;;;;;;23.42;9.45;;;;;;;19.27;100.00;99341.63;4830986;29;20292;-63
2022/08/11 18:00:30;;;;;;;26.33;9.97;;;;;;;19.35;100.00;99334.88;4831183;29;20334;-62
2022/08/11 18:05:52;;;;;;;23.50;8.50;;;;;;;19.42;100.00;99345.03;4830939;29;20307;-64
